createdAt,value
2018-12-16T00:00:31.724Z,83.15
2018-12-16T00:03:07.781Z,82.46
2018-12-16T00:05:36.262Z,83.07
2018-12-16T00:08:11.343Z,83.93
2018-12-16T00:10:43.176Z,84.59
2018-12-16T00:13:30.074Z,85.20
2018-12-16T00:15:59.225Z,84.46
2018-12-16T00:18:28.189Z,84.05
2018-12-16T00:20:57.396Z,82.76
2018-12-16T00:23:25.935Z,82.71
2018-12-16T00:25:54.454Z,82.05
2018-12-16T00:28:28.385Z,82.07
2018-12-16T00:30:56.861Z,82.11
2018-12-16T00:33:31.846Z,82.57
2018-12-16T00:36:22.629Z,83.39
2018-12-16T00:38:56.470Z,83.24
2018-12-16T00:41:29.354Z,83.81
2018-12-16T00:43:57.880Z,83.79
2018-12-16T00:46:39.860Z,83.62
2018-12-16T00:49:09.070Z,83.75
2018-12-16T00:51:37.875Z,84.45
2018-12-16T00:54:26.496Z,84.98
2018-12-16T00:56:55.756Z,85.24
2018-12-16T00:59:25.503Z,85.33
2018-12-16T01:01:54.327Z,85.29
2018-12-16T01:04:28.232Z,85.07
2018-12-16T01:07:17.902Z,85.40
2018-12-16T01:09:47.195Z,85.10
2018-12-16T01:12:17.113Z,84.87
2018-12-16T01:15:03.276Z,84.26
2018-12-16T01:17:33.437Z,84.26
2018-12-16T01:20:07.379Z,83.10
2018-12-16T01:22:52.960Z,83.42
2018-12-16T01:25:27.784Z,83.33
2018-12-16T01:27:56.446Z,83.00
2018-12-16T01:30:25.686Z,82.76
2018-12-16T01:32:56.108Z,82.62
2018-12-16T01:35:25.006Z,83.03
2018-12-16T01:37:53.437Z,82.75
2018-12-16T01:40:22.318Z,82.03
2018-12-16T01:42:51.435Z,81.95
2018-12-16T01:45:20.510Z,81.19
2018-12-16T01:47:49.052Z,81.02
2018-12-16T01:50:40.308Z,80.82
2018-12-16T01:53:09.057Z,80.75
2018-12-16T01:55:43.720Z,80.84
2018-12-16T01:58:12.179Z,81.08
2018-12-16T02:00:57.498Z,81.18
2018-12-16T02:03:26.986Z,80.51
2018-12-16T02:05:55.445Z,80.64
2018-12-16T02:08:23.856Z,80.55
2018-12-16T02:10:52.345Z,80.46
2018-12-16T02:13:22.202Z,81.55
2018-12-16T02:15:53.348Z,81.20
2018-12-16T02:18:38.925Z,81.42
2018-12-16T02:21:08.242Z,81.50
2018-12-16T02:23:43.056Z,81.99
2018-12-16T02:29:08.296Z,81.46
2018-12-16T02:31:42.231Z,81.42
2018-12-16T02:34:15.010Z,80.65
2018-12-16T02:36:43.802Z,80.05
2018-12-16T02:42:07.642Z,79.97
2018-12-16T02:44:41.793Z,80.10
2018-12-16T02:47:12.746Z,79.70
2018-12-16T02:49:45.384Z,79.45
2018-12-16T02:52:14.069Z,80.23
2018-12-16T02:54:44.257Z,80.17
2018-12-16T02:57:18.296Z,80.55
2018-12-16T03:00:02.856Z,80.81
2018-12-16T03:02:31.409Z,81.07
2018-12-16T03:05:07.803Z,80.50
2018-12-16T03:10:31.558Z,79.71
2018-12-16T03:13:00.742Z,79.73
2018-12-16T03:15:30.047Z,79.79
2018-12-16T03:18:05.310Z,79.31
2018-12-16T03:20:39.126Z,78.77
2018-12-16T03:23:13.682Z,79.41
2018-12-16T03:25:47.472Z,81.06
2018-12-16T03:28:21.362Z,80.76
2018-12-16T03:30:55.945Z,80.85
2018-12-16T03:33:28.717Z,80.90
2018-12-16T03:36:17.402Z,80.91
2018-12-16T03:38:51.359Z,81.17
2018-12-16T03:41:25.424Z,81.24
2018-12-16T03:43:56.202Z,80.50
2018-12-16T03:46:30.724Z,80.65
2018-12-16T03:49:17.467Z,80.52
2018-12-16T03:51:55.395Z,80.23
2018-12-16T03:54:30.294Z,79.73
2018-12-16T03:57:04.329Z,79.91
2018-12-16T03:59:37.454Z,79.68
2018-12-16T04:02:23.026Z,78.92
2018-12-16T04:05:12.850Z,79.02
2018-12-16T04:07:42.958Z,78.91
2018-12-16T04:10:16.748Z,78.88
2018-12-16T04:12:48.621Z,78.85
2018-12-16T04:15:23.834Z,78.46
2018-12-16T04:18:00.488Z,78.66
2018-12-16T04:20:45.738Z,78.31
2018-12-16T04:23:18.886Z,78.29
2018-12-16T04:25:47.661Z,78.55
2018-12-16T04:28:22.423Z,78.38
2018-12-16T04:30:53.986Z,78.73
2018-12-16T04:33:26.865Z,79.04
2018-12-16T04:36:13.523Z,78.91
2018-12-16T04:38:41.959Z,79.01
2018-12-16T04:41:10.921Z,79.05
2018-12-16T04:43:40.005Z,79.45
2018-12-16T04:46:10.360Z,79.47
2018-12-16T04:48:44.307Z,79.03
2018-12-16T04:51:13.464Z,78.62
2018-12-16T04:56:41.676Z,78.27
2018-12-16T04:59:29.354Z,77.38
2018-12-16T05:01:58.684Z,77.60
2018-12-16T05:04:27.350Z,78.18
2018-12-16T05:06:55.840Z,78.69
2018-12-16T05:09:31.646Z,79.62
2018-12-16T05:12:05.574Z,79.53
2018-12-16T05:14:34.030Z,80.21
2018-12-16T05:17:11.880Z,80.04
2018-12-16T05:19:40.379Z,78.82
2018-12-16T05:22:08.875Z,78.58
2018-12-16T05:24:37.359Z,78.27
2018-12-16T05:27:07.768Z,78.83
2018-12-16T05:29:38.351Z,78.12
2018-12-16T05:32:07.810Z,77.38
2018-12-16T05:34:43.749Z,77.59
2018-12-16T05:37:13.500Z,78.58
2018-12-16T05:39:43.236Z,77.69
2018-12-16T05:42:13.644Z,78.13
2018-12-16T05:44:42.212Z,78.33
2018-12-16T05:47:16.448Z,77.78
2018-12-16T05:49:45.388Z,78.17
2018-12-16T05:52:13.852Z,77.97
2018-12-16T05:55:02.085Z,78.17
2018-12-16T06:00:25.617Z,79.02
2018-12-16T06:02:54.855Z,78.82
2018-12-16T06:05:23.688Z,79.08
2018-12-16T06:07:56.717Z,78.86
2018-12-16T06:10:32.232Z,79.18
2018-12-16T06:13:03.594Z,79.31
2018-12-16T06:15:34.631Z,79.15
2018-12-16T06:18:10.352Z,79.30
2018-12-16T06:20:42.053Z,79.38
2018-12-16T06:23:11.209Z,79.54
2018-12-16T06:25:40.865Z,79.91
2018-12-16T06:28:14.705Z,79.83
2018-12-16T06:30:47.028Z,79.46
2018-12-16T06:33:15.772Z,79.27
2018-12-16T06:35:44.867Z,79.23
2018-12-16T06:38:13.469Z,79.63
2018-12-16T06:40:41.977Z,79.54
2018-12-16T06:43:10.468Z,80.10
2018-12-16T06:45:38.963Z,79.48
2018-12-16T06:48:10.239Z,80.08
2018-12-16T06:50:57.947Z,78.85
2018-12-16T06:53:31.922Z,78.71
2018-12-16T06:56:06.632Z,78.28
2018-12-16T06:58:38.191Z,77.87
2018-12-16T07:01:27.263Z,78.28
2018-12-16T07:03:57.367Z,78.14
2018-12-16T07:06:29.998Z,88.88
2018-12-16T07:09:06.019Z,86.75
2018-12-16T07:11:37.923Z,77.64
2018-12-16T07:14:08.788Z,74.03
2018-12-16T07:16:40.797Z,72.64
2018-12-16T07:19:14.671Z,72.97
2018-12-16T07:21:45.587Z,74.07
2018-12-16T07:24:15.434Z,73.72
2018-12-16T07:26:54.210Z,74.52
2018-12-16T07:29:28.028Z,74.13
2018-12-16T07:31:56.888Z,74.18
2018-12-16T07:34:25.607Z,74.05
2018-12-16T07:39:51.580Z,74.79
2018-12-16T07:42:20.245Z,74.42
2018-12-16T07:44:49.102Z,73.99
2018-12-16T07:47:18.588Z,74.11
2018-12-16T07:49:48.729Z,74.00
2018-12-16T07:52:37.786Z,74.43
2018-12-16T07:55:06.358Z,74.20
2018-12-16T07:57:52.056Z,73.87
2018-12-16T08:00:20.607Z,74.12
2018-12-16T08:02:51.052Z,77.07
2018-12-16T08:05:19.548Z,77.82
2018-12-16T08:07:48.800Z,75.14
2018-12-16T08:10:17.289Z,73.99
2018-12-16T08:12:45.798Z,72.18
2018-12-16T08:15:14.663Z,70.73
2018-12-16T08:17:43.380Z,70.46
2018-12-16T08:20:17.233Z,70.31
2018-12-16T08:22:50.134Z,70.52
2018-12-16T08:25:37.023Z,69.95
2018-12-16T08:28:27.627Z,69.36
2018-12-16T08:30:57.710Z,68.50
2018-12-16T08:33:26.467Z,68.63
2018-12-16T08:35:56.003Z,68.42
2018-12-16T08:38:24.790Z,67.12
2018-12-16T08:40:53.269Z,67.31
2018-12-16T08:43:21.756Z,66.22
2018-12-16T08:45:50.279Z,66.28
2018-12-16T08:48:18.717Z,66.00
2018-12-16T08:50:47.416Z,66.00
2018-12-16T08:53:15.927Z,65.58
2018-12-16T08:55:44.404Z,65.79
2018-12-16T08:58:12.856Z,65.16
2018-12-16T09:00:41.340Z,71.88
2018-12-16T09:03:10.664Z,67.03
2018-12-16T09:05:39.265Z,64.72
2018-12-16T09:08:07.748Z,63.59
2018-12-16T09:10:36.212Z,63.57
2018-12-16T09:13:04.732Z,64.36
2018-12-16T09:15:33.223Z,65.33
2018-12-16T09:18:01.920Z,66.23
2018-12-16T09:20:30.623Z,67.26
2018-12-16T09:22:59.120Z,66.98
2018-12-16T09:25:27.598Z,66.96
2018-12-16T09:27:56.414Z,66.90
2018-12-16T09:30:24.912Z,66.15
2018-12-16T09:32:53.348Z,66.55
2018-12-16T09:35:21.826Z,65.71
2018-12-16T09:37:50.323Z,65.79
2018-12-16T09:40:18.802Z,65.81
2018-12-16T09:42:47.284Z,65.29
2018-12-16T09:45:15.808Z,65.34
2018-12-16T09:47:44.268Z,65.12
2018-12-16T09:50:12.736Z,65.04
2018-12-16T09:52:41.234Z,65.20
2018-12-16T09:55:09.713Z,64.59
2018-12-16T09:57:38.157Z,64.75
2018-12-16T10:00:08.769Z,64.69
2018-12-16T10:02:37.236Z,64.68
2018-12-16T10:05:06.438Z,64.61
2018-12-16T10:07:35.017Z,64.13
2018-12-16T10:10:07.017Z,63.79
2018-12-16T10:12:35.527Z,63.96
2018-12-16T10:15:05.219Z,64.29
2018-12-16T10:17:33.703Z,64.75
2018-12-16T10:20:02.195Z,64.52
2018-12-16T10:22:30.631Z,63.83
2018-12-16T10:24:59.096Z,64.81
2018-12-16T10:27:27.592Z,65.13
2018-12-16T10:29:56.029Z,65.10
2018-12-16T10:32:24.468Z,65.13
2018-12-16T10:34:52.941Z,66.02
2018-12-16T10:37:21.422Z,66.49
2018-12-16T10:39:50.428Z,67.06
2018-12-16T10:42:18.942Z,67.11
2018-12-16T10:44:47.885Z,66.54
2018-12-16T10:47:16.343Z,66.21
2018-12-16T10:49:44.821Z,67.16
2018-12-16T10:52:13.305Z,67.81
2018-12-16T10:54:42.232Z,66.83
2018-12-16T10:57:10.723Z,65.88
2018-12-16T10:59:39.172Z,65.71
2018-12-16T11:02:07.621Z,64.90
2018-12-16T11:04:37.155Z,63.97
2018-12-16T11:07:05.620Z,64.26
2018-12-16T11:09:34.056Z,62.72
2018-12-16T11:12:02.577Z,62.55
2018-12-16T11:14:31.037Z,62.74
2018-12-16T11:16:59.466Z,62.69
2018-12-16T11:19:27.944Z,62.08
2018-12-16T11:21:56.370Z,63.63
2018-12-16T11:24:24.853Z,65.18
2018-12-16T11:26:53.347Z,66.69
2018-12-16T11:29:21.820Z,66.48
2018-12-16T11:31:50.316Z,66.62
2018-12-16T11:34:18.854Z,66.48
2018-12-16T11:36:47.295Z,65.95
2018-12-16T11:39:15.776Z,66.28
2018-12-16T11:41:44.255Z,65.74
2018-12-16T11:44:12.690Z,65.47
2018-12-16T11:46:42.144Z,65.32
2018-12-16T11:49:10.597Z,65.48
2018-12-16T11:51:39.519Z,64.88
2018-12-16T11:54:08.008Z,64.54
2018-12-16T11:56:36.478Z,64.06
2018-12-16T11:59:04.887Z,64.34
2018-12-16T12:01:33.340Z,64.87
2018-12-16T12:04:03.884Z,65.11
2018-12-16T12:06:32.356Z,65.92
2018-12-16T12:09:00.816Z,66.36
2018-12-16T12:11:29.386Z,66.65
2018-12-16T12:13:57.959Z,66.56
2018-12-16T12:16:26.420Z,67.73
2018-12-16T12:19:00.053Z,67.74
2018-12-16T12:21:28.541Z,67.39
2018-12-16T12:23:57.032Z,66.98
2018-12-16T12:26:25.606Z,67.10
2018-12-16T12:28:54.095Z,67.12
2018-12-16T12:31:22.576Z,67.34
2018-12-16T12:33:51.212Z,67.58
2018-12-16T12:36:19.692Z,66.94
2018-12-16T12:38:48.180Z,67.20
2018-12-16T12:41:16.732Z,67.00
2018-12-16T12:43:45.256Z,67.22
2018-12-16T12:46:13.724Z,67.22
2018-12-16T12:48:42.283Z,67.28
2018-12-16T12:51:10.772Z,67.65
2018-12-16T12:53:39.311Z,67.22
2018-12-16T12:56:07.889Z,67.19
2018-12-16T12:58:36.320Z,67.13
2018-12-16T13:01:04.838Z,67.20
2018-12-16T13:03:33.455Z,68.13
2018-12-16T13:06:01.993Z,67.82
2018-12-16T13:08:30.518Z,68.04
2018-12-16T13:10:59.077Z,68.24
2018-12-16T13:13:27.555Z,68.76
2018-12-16T13:15:56.814Z,67.96
2018-12-16T13:18:25.355Z,67.04
2018-12-16T13:20:53.882Z,68.18
2018-12-16T13:23:22.420Z,68.00
2018-12-16T13:26:01.660Z,68.34
2018-12-16T13:28:30.238Z,69.22
2018-12-16T13:30:58.744Z,69.10
2018-12-16T13:33:27.297Z,69.29
2018-12-16T13:35:55.833Z,69.65
2018-12-16T13:38:24.363Z,69.56
2018-12-16T13:40:53.152Z,70.01
2018-12-16T13:43:21.716Z,69.73
2018-12-16T13:45:50.259Z,69.98
2018-12-16T13:48:18.890Z,70.35
2018-12-16T13:50:47.371Z,70.55
2018-12-16T13:53:16.196Z,70.35
2018-12-16T13:55:45.408Z,70.19
2018-12-16T13:58:13.949Z,70.50
2018-12-16T14:00:42.507Z,70.47
2018-12-16T14:03:11.039Z,70.55
2018-12-16T14:05:46.447Z,70.67
2018-12-16T14:08:10.121Z,70.83
2018-12-16T14:10:38.742Z,71.03
2018-12-16T14:13:07.482Z,70.62
2018-12-16T14:15:36.084Z,70.83
2018-12-16T14:18:04.704Z,70.73
2018-12-16T14:20:33.210Z,71.14
2018-12-16T14:23:01.760Z,71.43
2018-12-16T14:25:30.441Z,71.12
2018-12-16T14:27:58.956Z,71.46
2018-12-16T14:30:27.786Z,71.40
2018-12-16T14:32:56.612Z,71.60
2018-12-16T14:35:25.397Z,71.55
2018-12-16T14:37:54.247Z,71.77
2018-12-16T14:40:22.810Z,71.46
2018-12-16T14:42:51.613Z,71.21
2018-12-16T14:45:20.144Z,70.83
2018-12-16T14:47:49.059Z,71.20
2018-12-16T14:50:17.614Z,71.18
2018-12-16T14:52:46.177Z,71.16
2018-12-16T14:55:14.940Z,71.15
2018-12-16T14:57:43.758Z,71.07
2018-12-16T15:00:12.462Z,71.90
2018-12-16T15:02:41.030Z,71.69
2018-12-16T15:05:09.628Z,71.96
2018-12-16T15:07:38.426Z,72.63
2018-12-16T15:10:07.722Z,72.69
2018-12-16T15:12:36.348Z,73.15
2018-12-16T15:15:05.591Z,73.03
2018-12-16T15:17:34.275Z,73.67
2018-12-16T15:20:03.257Z,73.80
2018-12-16T15:22:31.749Z,74.32
2018-12-16T15:25:00.336Z,74.29
2018-12-16T15:27:29.202Z,75.02
2018-12-16T15:29:58.005Z,74.92
2018-12-16T15:32:26.590Z,75.34
2018-12-16T15:34:55.214Z,74.83
2018-12-16T15:37:23.847Z,74.89
2018-12-16T15:39:52.727Z,75.25
2018-12-16T15:42:21.419Z,75.61
2018-12-16T15:44:51.548Z,76.00
2018-12-16T15:47:20.218Z,76.17
2018-12-16T15:49:49.280Z,76.09
2018-12-16T15:52:23.159Z,76.71
2018-12-16T15:54:57.761Z,76.92
2018-12-16T15:57:31.820Z,77.03
2018-12-16T16:00:00.956Z,82.10
2018-12-16T16:02:29.615Z,81.36
2018-12-16T16:04:59.159Z,80.00
2018-12-16T16:07:27.757Z,78.91
2018-12-16T16:09:56.547Z,77.43
2018-12-16T16:12:25.136Z,76.55
2018-12-16T16:14:53.733Z,75.96
2018-12-16T16:17:22.199Z,75.25
2018-12-16T16:19:50.834Z,74.96
2018-12-16T16:22:19.405Z,73.88
2018-12-16T16:24:47.968Z,74.36
2018-12-16T16:27:16.588Z,73.68
2018-12-16T16:29:45.055Z,80.97
2018-12-16T16:32:13.673Z,76.96
2018-12-16T16:34:43.358Z,71.75
2018-12-16T16:37:11.930Z,67.84
2018-12-16T16:39:40.561Z,68.97
2018-12-16T16:42:09.231Z,70.54
2018-12-16T16:44:37.768Z,72.07
2018-12-16T16:47:06.460Z,73.15
2018-12-16T16:49:35.709Z,73.95
2018-12-16T16:52:19.336Z,74.74
2018-12-16T16:54:49.945Z,75.84
2018-12-16T16:57:24.731Z,76.09
2018-12-16T16:59:59.453Z,76.51
2018-12-16T17:02:29.941Z,76.68
2018-12-16T17:04:59.242Z,76.83
2018-12-16T17:07:28.229Z,77.00
2018-12-16T17:09:56.867Z,76.98
2018-12-16T17:12:25.457Z,77.70
2018-12-16T17:14:54.828Z,77.73
2018-12-16T17:20:20.037Z,78.21
2018-12-16T17:22:54.284Z,78.37
2018-12-16T17:25:34.084Z,78.66
2018-12-16T17:28:03.743Z,78.91
2018-12-16T17:30:32.400Z,78.96
2018-12-16T17:33:04.413Z,79.02
2018-12-16T17:38:28.235Z,78.98
2018-12-16T17:40:57.676Z,78.90
2018-12-16T17:43:26.585Z,78.99
2018-12-16T17:46:00.920Z,78.92
2018-12-16T17:48:29.694Z,79.15
2018-12-16T17:51:04.725Z,79.72
2018-12-16T17:53:33.346Z,79.54
2018-12-16T17:56:03.926Z,79.87
2018-12-16T17:58:32.758Z,80.85
2018-12-16T18:01:06.918Z,80.55
2018-12-16T18:03:52.539Z,80.71
2018-12-16T18:06:21.229Z,80.33
2018-12-16T18:08:52.072Z,80.11
2018-12-16T18:11:24.128Z,80.09
2018-12-16T18:13:52.784Z,79.62
2018-12-16T18:16:42.621Z,79.41
2018-12-16T18:19:29.498Z,79.38
2018-12-16T18:22:05.888Z,79.59
2018-12-16T18:24:35.666Z,79.92
2018-12-16T18:27:05.099Z,79.95
2018-12-16T18:29:52.147Z,79.96
2018-12-16T18:32:20.834Z,79.94
2018-12-16T18:34:50.678Z,80.32
2018-12-16T18:37:19.740Z,79.66
2018-12-16T18:39:54.391Z,79.80
2018-12-16T18:42:27.405Z,79.80
2018-12-16T18:44:56.073Z,79.79
2018-12-16T18:47:24.648Z,80.34
2018-12-16T18:49:54.339Z,81.76
2018-12-16T18:52:42.158Z,81.33
2018-12-16T18:55:10.828Z,80.93
2018-12-16T18:57:39.800Z,80.03
2018-12-16T19:00:12.552Z,80.37
2018-12-16T19:02:46.747Z,80.50
2018-12-16T19:05:22.420Z,81.13
2018-12-16T19:07:51.828Z,87.14
2018-12-16T19:10:20.484Z,86.64
2018-12-16T19:12:56.221Z,84.30
2018-12-16T19:18:24.927Z,82.32
2018-12-16T19:20:59.517Z,82.07
2018-12-16T19:23:28.182Z,82.07
2018-12-16T19:28:52.612Z,82.15
2018-12-16T19:31:25.818Z,82.06
2018-12-16T19:34:13.508Z,82.35
2018-12-16T19:36:47.403Z,82.09
2018-12-16T19:39:20.872Z,82.59
2018-12-16T19:44:43.845Z,82.25
2018-12-16T19:47:13.020Z,82.23
2018-12-16T19:49:41.787Z,82.64
2018-12-16T19:52:10.419Z,82.49
2018-12-16T19:54:45.122Z,82.68
2018-12-16T19:57:17.122Z,82.66
2018-12-16T19:59:57.544Z,81.94
2018-12-16T20:02:26.172Z,81.09
2018-12-16T20:05:20.756Z,82.54
2018-12-16T20:08:09.937Z,82.88
2018-12-16T20:10:42.816Z,82.73
2018-12-16T20:13:14.867Z,82.82
2018-12-16T20:16:04.387Z,82.20
2018-12-16T20:18:50.419Z,82.46
2018-12-16T20:21:22.907Z,82.41
2018-12-16T20:23:51.510Z,83.37
2018-12-16T20:26:33.287Z,82.48
2018-12-16T20:29:07.121Z,82.41
2018-12-16T20:31:38.109Z,82.08
2018-12-16T20:34:15.055Z,82.43
2018-12-16T20:36:48.283Z,82.27
2018-12-16T20:39:27.320Z,82.63
2018-12-16T20:41:57.242Z,82.37
2018-12-16T20:44:40.058Z,82.00
2018-12-16T20:47:13.892Z,82.21
2018-12-16T20:49:44.881Z,82.16
2018-12-16T20:52:18.952Z,80.78
2018-12-16T20:55:02.775Z,81.48
2018-12-16T21:00:27.076Z,82.91
2018-12-16T21:03:01.967Z,83.24
2018-12-16T21:05:34.053Z,83.29
2018-12-16T21:08:03.944Z,83.04
2018-12-16T21:10:54.980Z,82.40
2018-12-16T21:13:35.343Z,82.47
2018-12-16T21:16:12.228Z,82.61
2018-12-16T21:18:42.744Z,82.59
2018-12-16T21:21:14.710Z,82.90
2018-12-16T21:23:44.745Z,82.59
2018-12-16T21:26:21.589Z,82.72
2018-12-16T21:28:50.176Z,82.50
2018-12-16T21:31:19.428Z,82.72
2018-12-16T21:33:53.364Z,82.81
2018-12-16T21:39:15.907Z,82.17
2018-12-16T21:42:06.848Z,82.61
2018-12-16T21:44:35.398Z,82.40
2018-12-16T21:47:23.589Z,82.40
2018-12-16T21:49:53.237Z,81.96
2018-12-16T21:52:27.080Z,82.16
2018-12-16T21:54:55.818Z,82.43
2018-12-16T21:57:33.059Z,82.08
2018-12-16T22:00:00.655Z,82.09
2018-12-16T22:02:32.492Z,82.34
2018-12-16T22:05:01.404Z,82.46
2018-12-16T22:07:30.206Z,82.07
2018-12-16T22:09:58.704Z,81.96
2018-12-16T22:12:29.717Z,82.06
2018-12-16T22:14:59.670Z,81.83
2018-12-16T22:17:28.496Z,82.08
2018-12-16T22:19:56.989Z,82.07
2018-12-16T22:22:29.746Z,82.20
2018-12-16T22:24:59.599Z,82.61
2018-12-16T22:27:40.131Z,82.45
2018-12-16T22:30:05.156Z,82.62
2018-12-16T22:35:30.555Z,82.35
2018-12-16T22:38:05.076Z,82.31
2018-12-16T22:40:50.428Z,82.42
2018-12-16T22:43:20.428Z,81.99
2018-12-16T22:45:54.360Z,82.22
2018-12-16T22:48:33.365Z,82.41
2018-12-16T22:51:02.515Z,82.07
2018-12-16T22:53:31.232Z,81.80
2018-12-16T22:55:59.659Z,82.03
2018-12-16T22:58:33.568Z,82.46
2018-12-16T23:01:07.663Z,82.18
2018-12-16T23:03:36.780Z,81.85
2018-12-16T23:06:05.217Z,82.32
2018-12-16T23:08:34.524Z,82.39
2018-12-16T23:14:01.902Z,81.98
2018-12-16T23:19:27.308Z,81.79
2018-12-16T23:21:56.136Z,82.04
2018-12-16T23:24:42.141Z,81.88
2018-12-16T23:27:10.912Z,82.06
2018-12-16T23:29:39.393Z,82.01
2018-12-16T23:32:23.750Z,82.11
2018-12-16T23:34:52.410Z,81.84
2018-12-16T23:37:20.899Z,82.36
2018-12-16T23:39:50.527Z,81.71
2018-12-16T23:42:23.887Z,82.29
2018-12-16T23:45:08.088Z,82.08
2018-12-16T23:47:53.441Z,82.35
2018-12-16T23:50:26.336Z,82.68
2018-12-16T23:52:54.960Z,82.01
2018-12-16T23:55:26.396Z,81.58
